Kezdőlap
METAR-TAF:

METAR-TAF

Repülőterek :

Kuusamo, Finnország

földrajzi szélesség: 65-58N, földrajzi hosszúság: 029-11E, magasság: 262 m

Jelenlegi meteorológiai megfigyelések

A jelentés 30 perccel ezelõtt készült, 04:20 UTC
Keleti szél 6 kt, kelet-északkeleti és délkeleti között változik
Hőmérséklet -15°C
Páratartalom 92%
Légköri nyomás 1009 hPa
Látótávolság: 7000 m
Szórványos felhőzet 3600 lábon
enyhe havazás

METAR: EFKS 280420Z AUTO 10006KT 070V130 7000 -SN SCT036 M15/M16 Q1009

Idő: 06:50 (04:50 UTC)

Előrejelzés

A jelentés 11 órával és 18 perccel ezelõtt készült, 17:32 UTC
Az előrejelzés 27-én 18 óra UTC és 27-én 22 óra UTC között érvényes
Keleti szél 3 kt
Látótávolság 10 km, vagy több
felhőtlen 1500 m magasságban, és nincs gomolyfelhõ

TAF: EFKS 271732Z 2718/2722 08003KT CAVOK

Meteorológiai megfigyelések és előrejelzések több, mint 4000 repülőtéren (METAR és TAF jelentéseket).

A térképen piros és sárga pontok jelzik az elérhető meteorológiai állomásokat.

Mozgassa az egeret a pont fölött, hogy megjelenjen az állomás neve.

Azután kattintson az időjárási megfigyelések és előrejelzések megtekintéséhez.

A térkép megváltoztatása: kattintson a fekete keresztel jelölt zöld gombra ráközelítéshez, a vonallal jelölt zöld gombra távolításhoz, vagy a zöld nyilakra a szomszédos térképek eléréséhez.


METAR-TAF: